sensor_id;sensor_type;location;lat;lon;timestamp;temperature;humidity
58983;DHT22;44771;49.982;8.560;2023-02-12T00:04:26;4.10;99.90
58983;DHT22;44771;49.982;8.560;2023-02-12T00:09:28;4.10;99.90
58983;DHT22;44771;49.982;8.560;2023-02-12T00:14:31;4.10;99.90
58983;DHT22;44771;49.982;8.560;2023-02-12T00:19:33;4.00;99.90
58983;DHT22;44771;49.982;8.560;2023-02-12T00:24:35;4.10;99.90
58983;DHT22;44771;49.982;8.560;2023-02-12T00:29:38;4.10;99.90
58983;DHT22;44771;49.982;8.560;2023-02-12T00:34:40;4.10;99.90
58983;DHT22;44771;49.982;8.560;2023-02-12T00:39:42;4.10;99.90
58983;DHT22;44771;49.982;8.560;2023-02-12T00:44:45;4.30;99.90
58983;DHT22;44771;49.982;8.560;2023-02-12T00:49:47;4.30;99.90
58983;DHT22;44771;49.982;8.560;2023-02-12T00:54:48;4.30;99.90
58983;DHT22;44771;49.982;8.560;2023-02-12T00:59:51;4.30;99.90
58983;DHT22;44771;49.982;8.560;2023-02-12T01:10:38;4.40;99.90
58983;DHT22;44771;49.982;8.560;2023-02-12T01:15:41;4.40;99.90
58983;DHT22;44771;49.982;8.560;2023-02-12T01:20:43;4.50;99.90
58983;DHT22;44771;49.982;8.560;2023-02-12T01:25:45;4.50;99.90
58983;DHT22;44771;49.982;8.560;2023-02-12T01:30:48;4.50;99.90
58983;DHT22;44771;49.982;8.560;2023-02-12T01:35:50;4.50;99.90
58983;DHT22;44771;49.982;8.560;2023-02-12T01:40:52;4.50;99.90
58983;DHT22;44771;49.982;8.560;2023-02-12T01:45:57;4.50;99.90
58983;DHT22;44771;49.982;8.560;2023-02-12T01:51:01;4.50;99.90
58983;DHT22;44771;49.982;8.560;2023-02-12T01:56:04;4.40;99.90
58983;DHT22;44771;49.982;8.560;2023-02-12T02:01:12;4.40;99.90
58983;DHT22;44771;49.982;8.560;2023-02-12T02:06:15;4.30;99.90
58983;DHT22;44771;49.982;8.560;2023-02-12T02:11:20;4.30;99.90
58983;DHT22;44771;49.982;8.560;2023-02-12T02:16:25;4.20;99.90
58983;DHT22;44771;49.982;8.560;2023-02-12T02:21:50;4.00;99.90
58983;DHT22;44771;49.982;8.560;2023-02-12T02:27:26;3.90;99.90
58983;DHT22;44771;49.982;8.560;2023-02-12T02:32:35;4.00;99.90
58983;DHT22;44771;49.982;8.560;2023-02-12T02:37:44;4.00;99.90
58983;DHT22;44771;49.982;8.560;2023-02-12T02:42:52;4.00;99.90
58983;DHT22;44771;49.982;8.560;2023-02-12T02:48:00;4.00;99.90
58983;DHT22;44771;49.982;8.560;2023-02-12T02:53:05;4.00;99.90
58983;DHT22;44771;49.982;8.560;2023-02-12T02:58:11;3.90;99.90
58983;DHT22;44771;49.982;8.560;2023-02-12T03:03:20;4.00;99.90
58983;DHT22;44771;49.982;8.560;2023-02-12T03:08:27;4.00;99.90
58983;DHT22;44771;49.982;8.560;2023-02-12T03:13:34;4.00;99.90
58983;DHT22;44771;49.982;8.560;2023-02-12T03:18:42;3.90;99.90
58983;DHT22;44771;49.982;8.560;2023-02-12T03:23:48;3.90;99.90
58983;DHT22;44771;49.982;8.560;2023-02-12T03:28:53;4.10;99.90
58983;DHT22;44771;49.982;8.560;2023-02-12T03:34:04;4.20;99.90
58983;DHT22;44771;49.982;8.560;2023-02-12T03:39:12;4.20;99.90
58983;DHT22;44771;49.982;8.560;2023-02-12T03:44:25;4.30;99.90
58983;DHT22;44771;49.982;8.560;2023-02-12T03:49:35;4.40;99.90
58983;DHT22;44771;49.982;8.560;2023-02-12T03:54:39;4.40;99.90
58983;DHT22;44771;49.982;8.560;2023-02-12T03:59:41;4.40;99.90
58983;DHT22;44771;49.982;8.560;2023-02-12T04:04:46;4.50;99.90
58983;DHT22;44771;49.982;8.560;2023-02-12T04:09:48;4.50;99.90
58983;DHT22;44771;49.982;8.560;2023-02-12T04:14:54;4.50;99.90
58983;DHT22;44771;49.982;8.560;2023-02-12T04:20:09;4.50;99.90
58983;DHT22;44771;49.982;8.560;2023-02-12T04:25:21;4.50;99.90
58983;DHT22;44771;49.982;8.560;2023-02-12T04:30:28;4.50;99.90
58983;DHT22;44771;49.982;8.560;2023-02-12T04:35:35;4.50;99.90
58983;DHT22;44771;49.982;8.560;2023-02-12T04:40:41;4.50;99.90
58983;DHT22;44771;49.982;8.560;2023-02-12T04:45:43;4.50;99.90
58983;DHT22;44771;49.982;8.560;2023-02-12T04:50:47;4.50;99.90
58983;DHT22;44771;49.982;8.560;2023-02-12T04:55:48;4.40;99.90
58983;DHT22;44771;49.982;8.560;2023-02-12T05:00:50;4.50;99.90
58983;DHT22;44771;49.982;8.560;2023-02-12T05:05:53;4.40;99.90
58983;DHT22;44771;49.982;8.560;2023-02-12T05:10:55;4.40;99.90
58983;DHT22;44771;49.982;8.560;2023-02-12T05:15:57;4.30;99.90
58983;DHT22;44771;49.982;8.560;2023-02-12T05:21:03;4.30;99.90
58983;DHT22;44771;49.982;8.560;2023-02-12T05:26:06;4.30;99.90
58983;DHT22;44771;49.982;8.560;2023-02-12T05:31:15;4.30;99.90
58983;DHT22;44771;49.982;8.560;2023-02-12T05:36:21;4.40;99.90
58983;DHT22;44771;49.982;8.560;2023-02-12T05:41:23;4.40;99.90
58983;DHT22;44771;49.982;8.560;2023-02-12T05:46:25;4.40;99.90
58983;DHT22;44771;49.982;8.560;2023-02-12T05:51:29;4.40;99.90
58983;DHT22;44771;49.982;8.560;2023-02-12T05:56:32;4.40;99.90
58983;DHT22;44771;49.982;8.560;2023-02-12T06:01:36;4.40;99.90
58983;DHT22;44771;49.982;8.560;2023-02-12T06:06:40;4.30;99.90
58983;DHT22;44771;49.982;8.560;2023-02-12T06:11:43;4.10;99.90
58983;DHT22;44771;49.982;8.560;2023-02-12T06:16:45;4.00;99.90
58983;DHT22;44771;49.982;8.560;2023-02-12T06:21:49;3.80;99.90
58983;DHT22;44771;49.982;8.560;2023-02-12T06:26:51;3.70;99.90
58983;DHT22;44771;49.982;8.560;2023-02-12T06:31:52;3.90;99.90
58983;DHT22;44771;49.982;8.560;2023-02-12T06:36:56;4.00;99.90
58983;DHT22;44771;49.982;8.560;2023-02-12T06:41:58;4.20;99.90
58983;DHT22;44771;49.982;8.560;2023-02-12T06:46:59;4.00;99.90
58983;DHT22;44771;49.982;8.560;2023-02-12T06:52:02;4.00;99.90
58983;DHT22;44771;49.982;8.560;2023-02-12T06:57:04;4.30;99.90
58983;DHT22;44771;49.982;8.560;2023-02-12T07:02:07;4.20;99.90
58983;DHT22;44771;49.982;8.560;2023-02-12T07:07:11;4.00;99.90
58983;DHT22;44771;49.982;8.560;2023-02-12T07:12:12;3.90;99.90
58983;DHT22;44771;49.982;8.560;2023-02-12T07:17:14;4.00;99.90
58983;DHT22;44771;49.982;8.560;2023-02-12T07:22:17;4.40;99.90
58983;DHT22;44771;49.982;8.560;2023-02-12T07:27:19;4.60;99.90
58983;DHT22;44771;49.982;8.560;2023-02-12T07:32:24;4.70;99.90
58983;DHT22;44771;49.982;8.560;2023-02-12T07:37:28;4.70;99.90
58983;DHT22;44771;49.982;8.560;2023-02-12T07:42:29;4.70;99.90
58983;DHT22;44771;49.982;8.560;2023-02-12T07:47:31;4.70;99.90
58983;DHT22;44771;49.982;8.560;2023-02-12T07:52:34;4.70;99.90
58983;DHT22;44771;49.982;8.560;2023-02-12T07:57:36;4.90;99.90
58983;DHT22;44771;49.982;8.560;2023-02-12T08:02:38;5.10;99.90
58983;DHT22;44771;49.982;8.560;2023-02-12T08:07:41;5.30;99.90
58983;DHT22;44771;49.982;8.560;2023-02-12T08:12:43;5.70;99.90
58983;DHT22;44771;49.982;8.560;2023-02-12T08:17:45;5.90;99.90
58983;DHT22;44771;49.982;8.560;2023-02-12T08:22:48;5.80;99.90
58983;DHT22;44771;49.982;8.560;2023-02-12T08:27:49;5.80;99.90
58983;DHT22;44771;49.982;8.560;2023-02-12T08:32:51;6.00;99.90
58983;DHT22;44771;49.982;8.560;2023-02-12T08:37:54;6.10;99.90
58983;DHT22;44771;49.982;8.560;2023-02-12T08:42:56;6.10;99.90
58983;DHT22;44771;49.982;8.560;2023-02-12T08:47:58;6.10;99.90
58983;DHT22;44771;49.982;8.560;2023-02-12T08:53:01;6.10;99.90
58983;DHT22;44771;49.982;8.560;2023-02-12T08:58:02;6.30;99.90
58983;DHT22;44771;49.982;8.560;2023-02-12T09:03:04;6.70;99.90
58983;DHT22;44771;49.982;8.560;2023-02-12T09:08:07;6.60;99.90
58983;DHT22;44771;49.982;8.560;2023-02-12T09:13:10;6.80;99.90
58983;DHT22;44771;49.982;8.560;2023-02-12T09:18:13;6.80;99.90
58983;DHT22;44771;49.982;8.560;2023-02-12T09:23:20;7.10;99.90
58983;DHT22;44771;49.982;8.560;2023-02-12T09:28:22;7.10;99.90
58983;DHT22;44771;49.982;8.560;2023-02-12T09:33:24;7.40;99.90
58983;DHT22;44771;49.982;8.560;2023-02-12T09:38:27;7.60;99.90
58983;DHT22;44771;49.982;8.560;2023-02-12T09:43:35;7.70;99.90
58983;DHT22;44771;49.982;8.560;2023-02-12T09:48:47;7.70;99.90
58983;DHT22;44771;49.982;8.560;2023-02-12T09:54:01;7.80;99.90
58983;DHT22;44771;49.982;8.560;2023-02-12T09:59:05;7.70;99.90
58983;DHT22;44771;49.982;8.560;2023-02-12T10:04:07;7.90;99.90
58983;DHT22;44771;49.982;8.560;2023-02-12T10:09:31;8.00;99.90
58983;DHT22;44771;49.982;8.560;2023-02-12T10:14:55;8.00;99.90
58983;DHT22;44771;49.982;8.560;2023-02-12T10:25:35;8.30;99.90
58983;DHT22;44771;49.982;8.560;2023-02-12T10:30:44;8.50;99.90
58983;DHT22;44771;49.982;8.560;2023-02-12T10:35:50;8.30;99.90
58983;DHT22;44771;49.982;8.560;2023-02-12T10:40:54;8.20;99.90
58983;DHT22;44771;49.982;8.560;2023-02-12T10:45:57;8.30;99.90
58983;DHT22;44771;49.982;8.560;2023-02-12T10:51:15;8.30;99.90
58983;DHT22;44771;49.982;8.560;2023-02-12T10:56:23;8.40;99.90
58983;DHT22;44771;49.982;8.560;2023-02-12T11:01:29;8.50;99.90
58983;DHT22;44771;49.982;8.560;2023-02-12T11:06:31;8.50;99.90
58983;DHT22;44771;49.982;8.560;2023-02-12T11:11:37;8.60;99.90
58983;DHT22;44771;49.982;8.560;2023-02-12T11:16:45;9.00;99.90
58983;DHT22;44771;49.982;8.560;2023-02-12T11:21:52;8.90;99.90
58983;DHT22;44771;49.982;8.560;2023-02-12T11:27:21;9.10;99.90
58983;DHT22;44771;49.982;8.560;2023-02-12T11:32:22;9.20;99.90
58983;DHT22;44771;49.982;8.560;2023-02-12T11:37:24;9.30;99.90
58983;DHT22;44771;49.982;8.560;2023-02-12T11:42:28;9.10;99.90
58983;DHT22;44771;49.982;8.560;2023-02-12T11:47:35;9.30;99.90
58983;DHT22;44771;49.982;8.560;2023-02-12T11:52:41;9.30;99.90
58983;DHT22;44771;49.982;8.560;2023-02-12T11:57:46;9.40;99.90
58983;DHT22;44771;49.982;8.560;2023-02-12T12:02:51;9.30;99.90
58983;DHT22;44771;49.982;8.560;2023-02-12T12:07:59;9.50;99.90
58983;DHT22;44771;49.982;8.560;2023-02-12T12:13:10;9.40;99.90
58983;DHT22;44771;49.982;8.560;2023-02-12T12:18:22;9.50;99.90
58983;DHT22;44771;49.982;8.560;2023-02-12T12:23:31;9.50;99.90
58983;DHT22;44771;49.982;8.560;2023-02-12T12:28:43;9.50;99.90
58983;DHT22;44771;49.982;8.560;2023-02-12T12:33:47;9.50;99.90
58983;DHT22;44771;49.982;8.560;2023-02-12T12:38:55;9.70;99.90
58983;DHT22;44771;49.982;8.560;2023-02-12T12:44:14;9.90;99.90
58983;DHT22;44771;49.982;8.560;2023-02-12T12:49:29;9.80;99.90
58983;DHT22;44771;49.982;8.560;2023-02-12T12:54:54;9.70;99.90
58983;DHT22;44771;49.982;8.560;2023-02-12T13:00:07;9.60;99.90
58983;DHT22;44771;49.982;8.560;2023-02-12T13:05:42;9.60;99.90
58983;DHT22;44771;49.982;8.560;2023-02-12T13:10:50;9.50;99.90
58983;DHT22;44771;49.982;8.560;2023-02-12T13:16:04;9.50;99.90
58983;DHT22;44771;49.982;8.560;2023-02-12T13:21:14;9.40;99.90
58983;DHT22;44771;49.982;8.560;2023-02-12T13:26:23;9.50;99.90
58983;DHT22;44771;49.982;8.560;2023-02-12T13:31:29;9.40;99.90
58983;DHT22;44771;49.982;8.560;2023-02-12T13:36:35;9.50;99.90
58983;DHT22;44771;49.982;8.560;2023-02-12T13:41:38;9.70;99.90
58983;DHT22;44771;49.982;8.560;2023-02-12T13:46:50;9.80;99.90
58983;DHT22;44771;49.982;8.560;2023-02-12T13:52:00;9.90;99.90
58983;DHT22;44771;49.982;8.560;2023-02-12T13:57:08;9.90;99.90
58983;DHT22;44771;49.982;8.560;2023-02-12T14:02:42;10.10;99.90
58983;DHT22;44771;49.982;8.560;2023-02-12T14:07:47;9.90;99.90
58983;DHT22;44771;49.982;8.560;2023-02-12T14:12:50;9.70;99.90
58983;DHT22;44771;49.982;8.560;2023-02-12T14:18:00;9.40;99.90
58983;DHT22;44771;49.982;8.560;2023-02-12T14:23:26;9.50;99.90
58983;DHT22;44771;49.982;8.560;2023-02-12T14:28:40;9.40;99.90
58983;DHT22;44771;49.982;8.560;2023-02-12T14:33:46;9.40;99.90
58983;DHT22;44771;49.982;8.560;2023-02-12T14:38:59;9.40;99.90
58983;DHT22;44771;49.982;8.560;2023-02-12T14:49:47;9.20;99.90
58983;DHT22;44771;49.982;8.560;2023-02-12T14:54:51;9.10;99.90
58983;DHT22;44771;49.982;8.560;2023-02-12T14:59:55;9.10;99.90
58983;DHT22;44771;49.982;8.560;2023-02-12T15:05:03;9.10;99.90
58983;DHT22;44771;49.982;8.560;2023-02-12T15:10:12;9.00;99.90
58983;DHT22;44771;49.982;8.560;2023-02-12T15:15:20;8.70;99.90
58983;DHT22;44771;49.982;8.560;2023-02-12T15:20:32;8.50;99.90
58983;DHT22;44771;49.982;8.560;2023-02-12T15:25:35;8.40;99.90
58983;DHT22;44771;49.982;8.560;2023-02-12T15:30:41;8.20;99.90
58983;DHT22;44771;49.982;8.560;2023-02-12T15:35:44;8.10;99.90
58983;DHT22;44771;49.982;8.560;2023-02-12T15:40:53;8.00;99.90
58983;DHT22;44771;49.982;8.560;2023-02-12T15:45:55;8.10;99.90
58983;DHT22;44771;49.982;8.560;2023-02-12T15:51:04;8.00;99.90
58983;DHT22;44771;49.982;8.560;2023-02-12T15:56:11;8.00;99.90
58983;DHT22;44771;49.982;8.560;2023-02-12T16:01:15;7.90;99.90
58983;DHT22;44771;49.982;8.560;2023-02-12T16:06:20;7.70;99.90
58983;DHT22;44771;49.982;8.560;2023-02-12T16:11:23;7.70;99.90
58983;DHT22;44771;49.982;8.560;2023-02-12T16:16:28;7.50;99.90
58983;DHT22;44771;49.982;8.560;2023-02-12T16:21:33;7.30;99.90
58983;DHT22;44771;49.982;8.560;2023-02-12T16:26:36;7.10;99.90
58983;DHT22;44771;49.982;8.560;2023-02-12T16:31:37;7.00;99.90
58983;DHT22;44771;49.982;8.560;2023-02-12T16:36:45;6.80;99.90
58983;DHT22;44771;49.982;8.560;2023-02-12T16:41:52;6.70;99.90
58983;DHT22;44771;49.982;8.560;2023-02-12T16:46:57;6.50;99.90
58983;DHT22;44771;49.982;8.560;2023-02-12T16:52:20;6.30;99.90
58983;DHT22;44771;49.982;8.560;2023-02-12T16:57:28;6.10;99.90
58983;DHT22;44771;49.982;8.560;2023-02-12T17:02:30;6.00;99.90
58983;DHT22;44771;49.982;8.560;2023-02-12T17:07:33;5.70;99.90
58983;DHT22;44771;49.982;8.560;2023-02-12T17:12:44;5.70;99.90
58983;DHT22;44771;49.982;8.560;2023-02-12T17:17:46;5.50;99.90
58983;DHT22;44771;49.982;8.560;2023-02-12T17:22:50;5.30;99.90
58983;DHT22;44771;49.982;8.560;2023-02-12T17:27:52;5.10;99.90
58983;DHT22;44771;49.982;8.560;2023-02-12T17:32:54;4.70;99.90
58983;DHT22;44771;49.982;8.560;2023-02-12T17:37:57;4.60;99.90
58983;DHT22;44771;49.982;8.560;2023-02-12T17:42:59;4.50;99.90
58983;DHT22;44771;49.982;8.560;2023-02-12T17:48:02;4.20;99.90
58983;DHT22;44771;49.982;8.560;2023-02-12T17:53:06;4.00;99.90
58983;DHT22;44771;49.982;8.560;2023-02-12T17:58:08;4.00;99.90
58983;DHT22;44771;49.982;8.560;2023-02-12T18:03:09;4.10;99.90
58983;DHT22;44771;49.982;8.560;2023-02-12T18:08:12;4.20;99.90
58983;DHT22;44771;49.982;8.560;2023-02-12T18:13:14;4.50;99.90
58983;DHT22;44771;49.982;8.560;2023-02-12T18:18:16;4.70;99.90
58983;DHT22;44771;49.982;8.560;2023-02-12T18:23:19;5.00;99.90
58983;DHT22;44771;49.982;8.560;2023-02-12T18:28:21;5.00;99.90
58983;DHT22;44771;49.982;8.560;2023-02-12T18:33:23;5.30;99.90
58983;DHT22;44771;49.982;8.560;2023-02-12T18:38:27;5.40;99.90
58983;DHT22;44771;49.982;8.560;2023-02-12T18:43:30;5.70;99.90
58983;DHT22;44771;49.982;8.560;2023-02-12T18:48:31;6.10;99.90
58983;DHT22;44771;49.982;8.560;2023-02-12T18:53:35;6.30;99.90
58983;DHT22;44771;49.982;8.560;2023-02-12T18:58:37;6.60;99.90
58983;DHT22;44771;49.982;8.560;2023-02-12T19:03:39;6.70;99.90
58983;DHT22;44771;49.982;8.560;2023-02-12T19:08:42;6.80;99.90
58983;DHT22;44771;49.982;8.560;2023-02-12T19:13:44;6.70;99.90
58983;DHT22;44771;49.982;8.560;2023-02-12T19:18:47;6.70;99.90
58983;DHT22;44771;49.982;8.560;2023-02-12T19:23:52;6.70;99.90
58983;DHT22;44771;49.982;8.560;2023-02-12T19:28:55;6.80;99.90
58983;DHT22;44771;49.982;8.560;2023-02-12T19:33:59;6.90;99.90
58983;DHT22;44771;49.982;8.560;2023-02-12T19:39:03;6.90;99.90
58983;DHT22;44771;49.982;8.560;2023-02-12T19:44:07;6.90;99.90
58983;DHT22;44771;49.982;8.560;2023-02-12T19:49:13;6.90;99.90
58983;DHT22;44771;49.982;8.560;2023-02-12T19:54:19;6.90;99.90
58983;DHT22;44771;49.982;8.560;2023-02-12T19:59:23;6.90;99.90
58983;DHT22;44771;49.982;8.560;2023-02-12T20:04:25;6.90;99.90
58983;DHT22;44771;49.982;8.560;2023-02-12T20:09:28;6.90;99.90
58983;DHT22;44771;49.982;8.560;2023-02-12T20:14:30;6.90;99.90
58983;DHT22;44771;49.982;8.560;2023-02-12T20:19:31;6.80;99.90
58983;DHT22;44771;49.982;8.560;2023-02-12T20:24:35;6.90;99.90
58983;DHT22;44771;49.982;8.560;2023-02-12T20:29:38;6.80;99.90
58983;DHT22;44771;49.982;8.560;2023-02-12T20:34:40;6.70;99.90
58983;DHT22;44771;49.982;8.560;2023-02-12T20:39:52;6.90;99.90
58983;DHT22;44771;49.982;8.560;2023-02-12T20:44:54;7.00;99.90
58983;DHT22;44771;49.982;8.560;2023-02-12T20:49:56;7.20;99.90
58983;DHT22;44771;49.982;8.560;2023-02-12T20:55:00;7.40;99.90
58983;DHT22;44771;49.982;8.560;2023-02-12T21:00:02;7.50;99.90
58983;DHT22;44771;49.982;8.560;2023-02-12T21:05:05;7.40;99.90
58983;DHT22;44771;49.982;8.560;2023-02-12T21:10:09;7.40;99.90
58983;DHT22;44771;49.982;8.560;2023-02-12T21:15:11;7.30;99.90
58983;DHT22;44771;49.982;8.560;2023-02-12T21:20:12;7.30;99.90
58983;DHT22;44771;49.982;8.560;2023-02-12T21:25:16;7.30;99.90
58983;DHT22;44771;49.982;8.560;2023-02-12T21:30:17;7.20;99.90
58983;DHT22;44771;49.982;8.560;2023-02-12T21:35:19;7.20;99.90
58983;DHT22;44771;49.982;8.560;2023-02-12T21:40:23;7.20;99.90
58983;DHT22;44771;49.982;8.560;2023-02-12T21:45:24;7.30;99.90
58983;DHT22;44771;49.982;8.560;2023-02-12T21:50:26;7.20;99.90
58983;DHT22;44771;49.982;8.560;2023-02-12T21:55:29;7.20;99.90
58983;DHT22;44771;49.982;8.560;2023-02-12T22:00:31;7.20;99.90
58983;DHT22;44771;49.982;8.560;2023-02-12T22:05:33;7.20;99.90
58983;DHT22;44771;49.982;8.560;2023-02-12T22:10:36;7.10;99.90
58983;DHT22;44771;49.982;8.560;2023-02-12T22:15:38;7.10;99.90
58983;DHT22;44771;49.982;8.560;2023-02-12T22:20:40;7.10;99.90
58983;DHT22;44771;49.982;8.560;2023-02-12T22:25:43;6.90;99.90
58983;DHT22;44771;49.982;8.560;2023-02-12T22:30:45;6.90;99.90
58983;DHT22;44771;49.982;8.560;2023-02-12T22:35:46;6.90;99.90
58983;DHT22;44771;49.982;8.560;2023-02-12T22:40:52;6.80;99.90
58983;DHT22;44771;49.982;8.560;2023-02-12T22:45:53;6.60;99.90
58983;DHT22;44771;49.982;8.560;2023-02-12T22:50:56;6.60;99.90
58983;DHT22;44771;49.982;8.560;2023-02-12T22:56:02;6.40;99.90
58983;DHT22;44771;49.982;8.560;2023-02-12T23:01:05;6.30;99.90
58983;DHT22;44771;49.982;8.560;2023-02-12T23:06:10;6.20;99.90
58983;DHT22;44771;49.982;8.560;2023-02-12T23:11:13;6.00;99.90
58983;DHT22;44771;49.982;8.560;2023-02-12T23:16:15;5.80;99.90
58983;DHT22;44771;49.982;8.560;2023-02-12T23:21:17;5.70;99.90
58983;DHT22;44771;49.982;8.560;2023-02-12T23:26:20;5.70;99.90
58983;DHT22;44771;49.982;8.560;2023-02-12T23:31:22;5.60;99.90
58983;DHT22;44771;49.982;8.560;2023-02-12T23:36:24;5.60;99.90
58983;DHT22;44771;49.982;8.560;2023-02-12T23:41:27;5.50;99.90
58983;DHT22;44771;49.982;8.560;2023-02-12T23:46:29;5.50;99.90
58983;DHT22;44771;49.982;8.560;2023-02-12T23:51:31;5.50;99.90
58983;DHT22;44771;49.982;8.560;2023-02-12T23:56:34;5.40;99.90
